Newton, Utah
Current Conditions -  °F | °C
As of 3:51 PM on Thursday 27 Nov 2014 (Local Time) from KLGU Reporting Station
Clear Clear  
Wind Chill: 47°   Ceiling: Unl
Heat Index: 47°   Visibility: 10mi
Dew Point: 36°   Wind: 3mph
Humidity: 66%   Direction: 150°SSE
Pressure: 30.2"   Gusts: NA
Location:  41.86°N, 111.99°W
Report Text: KLGU 272251Z AUTO 15003KT 10SM CLR 08/02 A3020 RMK AO2 SLP220 T00830022
Loading
Personal Weather Stations






























Interactive Weather Map New forecast layout! Learn more

10-Day Weather Forecast

Advertisements
Track Severe Weather on mobile